sensor_id;sensor_type;location;lat;lon;timestamp;temperature;humidity
11043;DHT22;5574;48.786;10.120;2022-11-15T00:01:29;8.50;99.90
11043;DHT22;5574;48.786;10.120;2022-11-15T00:03:56;8.50;99.90
11043;DHT22;5574;48.786;10.120;2022-11-15T00:06:22;8.40;99.90
11043;DHT22;5574;48.786;10.120;2022-11-15T00:08:49;8.40;99.90
11043;DHT22;5574;48.786;10.120;2022-11-15T00:11:30;8.40;99.90
11043;DHT22;5574;48.786;10.120;2022-11-15T00:13:58;8.40;99.90
11043;DHT22;5574;48.786;10.120;2022-11-15T00:16:28;8.40;99.90
11043;DHT22;5574;48.786;10.120;2022-11-15T00:18:54;8.40;99.90
11043;DHT22;5574;48.786;10.120;2022-11-15T00:21:22;8.40;99.90
11043;DHT22;5574;48.786;10.120;2022-11-15T00:23:49;8.40;99.90
11043;DHT22;5574;48.786;10.120;2022-11-15T00:26:16;8.40;99.90
11043;DHT22;5574;48.786;10.120;2022-11-15T00:28:43;8.40;99.90
11043;DHT22;5574;48.786;10.120;2022-11-15T00:31:13;8.40;99.90
11043;DHT22;5574;48.786;10.120;2022-11-15T00:33:43;8.30;99.90
11043;DHT22;5574;48.786;10.120;2022-11-15T00:36:10;8.40;99.90
11043;DHT22;5574;48.786;10.120;2022-11-15T00:38:38;8.30;99.90
11043;DHT22;5574;48.786;10.120;2022-11-15T00:41:06;8.40;99.90
11043;DHT22;5574;48.786;10.120;2022-11-15T00:43:33;8.40;99.90
11043;DHT22;5574;48.786;10.120;2022-11-15T00:46:00;8.40;99.90
11043;DHT22;5574;48.786;10.120;2022-11-15T00:48:29;8.40;99.90
11043;DHT22;5574;48.786;10.120;2022-11-15T00:50:57;8.40;99.90
11043;DHT22;5574;48.786;10.120;2022-11-15T00:53:23;8.30;99.90
11043;DHT22;5574;48.786;10.120;2022-11-15T00:55:50;8.40;99.90
11043;DHT22;5574;48.786;10.120;2022-11-15T00:58:17;8.30;99.90
11043;DHT22;5574;48.786;10.120;2022-11-15T01:00:44;8.30;99.90
11043;DHT22;5574;48.786;10.120;2022-11-15T01:03:10;8.20;99.90
11043;DHT22;5574;48.786;10.120;2022-11-15T01:05:41;8.20;99.90
11043;DHT22;5574;48.786;10.120;2022-11-15T01:08:32;8.20;99.90
11043;DHT22;5574;48.786;10.120;2022-11-15T01:11:00;8.20;99.90
11043;DHT22;5574;48.786;10.120;2022-11-15T01:13:30;8.20;99.90
11043;DHT22;5574;48.786;10.120;2022-11-15T01:15:57;8.20;99.90
11043;DHT22;5574;48.786;10.120;2022-11-15T01:18:24;8.20;99.90
11043;DHT22;5574;48.786;10.120;2022-11-15T01:20:50;8.20;99.90
11043;DHT22;5574;48.786;10.120;2022-11-15T01:23:17;8.20;99.90
11043;DHT22;5574;48.786;10.120;2022-11-15T01:25:45;8.30;99.90
11043;DHT22;5574;48.786;10.120;2022-11-15T01:28:12;8.20;99.90
11043;DHT22;5574;48.786;10.120;2022-11-15T01:30:39;8.20;99.90
11043;DHT22;5574;48.786;10.120;2022-11-15T01:33:05;8.20;99.90
11043;DHT22;5574;48.786;10.120;2022-11-15T01:35:32;8.20;99.90
11043;DHT22;5574;48.786;10.120;2022-11-15T01:37:59;8.20;99.90
11043;DHT22;5574;48.786;10.120;2022-11-15T01:40:25;8.20;99.90
11043;DHT22;5574;48.786;10.120;2022-11-15T01:42:54;8.20;99.90
11043;DHT22;5574;48.786;10.120;2022-11-15T01:45:20;8.20;99.90
11043;DHT22;5574;48.786;10.120;2022-11-15T01:47:50;8.20;99.90
11043;DHT22;5574;48.786;10.120;2022-11-15T01:50:22;8.20;99.90
11043;DHT22;5574;48.786;10.120;2022-11-15T01:52:50;8.20;99.90
11043;DHT22;5574;48.786;10.120;2022-11-15T01:55:20;8.20;99.90
11043;DHT22;5574;48.786;10.120;2022-11-15T01:57:50;8.20;99.90
11043;DHT22;5574;48.786;10.120;2022-11-15T02:00:19;8.20;99.90
11043;DHT22;5574;48.786;10.120;2022-11-15T02:02:46;8.20;99.90
11043;DHT22;5574;48.786;10.120;2022-11-15T02:05:12;8.20;99.90
11043;DHT22;5574;48.786;10.120;2022-11-15T02:07:39;8.20;99.90
11043;DHT22;5574;48.786;10.120;2022-11-15T02:10:08;8.20;99.90
11043;DHT22;5574;48.786;10.120;2022-11-15T02:12:36;8.20;99.90
11043;DHT22;5574;48.786;10.120;2022-11-15T02:15:04;8.10;99.90
11043;DHT22;5574;48.786;10.120;2022-11-15T02:18:01;8.10;99.90
11043;DHT22;5574;48.786;10.120;2022-11-15T02:20:46;8.10;99.90
11043;DHT22;5574;48.786;10.120;2022-11-15T02:26:44;8.10;99.90
11043;DHT22;5574;48.786;10.120;2022-11-15T02:29:28;8.10;99.90
11043;DHT22;5574;48.786;10.120;2022-11-15T02:32:06;8.00;99.90
11043;DHT22;5574;48.786;10.120;2022-11-15T02:34:47;7.90;99.90
11043;DHT22;5574;48.786;10.120;2022-11-15T02:37:23;7.90;99.90
11043;DHT22;5574;48.786;10.120;2022-11-15T02:40:00;7.90;99.90
11043;DHT22;5574;48.786;10.120;2022-11-15T02:42:30;7.90;99.90
11043;DHT22;5574;48.786;10.120;2022-11-15T02:45:21;7.90;99.90
11043;DHT22;5574;48.786;10.120;2022-11-15T02:47:52;7.90;99.90
11043;DHT22;5574;48.786;10.120;2022-11-15T02:50:28;7.90;99.90
11043;DHT22;5574;48.786;10.120;2022-11-15T02:52:56;7.90;99.90
11043;DHT22;5574;48.786;10.120;2022-11-15T02:55:28;7.90;99.90
11043;DHT22;5574;48.786;10.120;2022-11-15T02:58:06;7.90;99.90
11043;DHT22;5574;48.786;10.120;2022-11-15T03:00:38;7.80;99.90
11043;DHT22;5574;48.786;10.120;2022-11-15T03:03:22;7.80;99.90
11043;DHT22;5574;48.786;10.120;2022-11-15T03:05:55;7.80;99.90
11043;DHT22;5574;48.786;10.120;2022-11-15T03:08:31;7.70;99.90
11043;DHT22;5574;48.786;10.120;2022-11-15T03:11:03;7.70;99.90
11043;DHT22;5574;48.786;10.120;2022-11-15T03:13:37;7.70;99.90
11043;DHT22;5574;48.786;10.120;2022-11-15T03:16:09;7.70;99.90
11043;DHT22;5574;48.786;10.120;2022-11-15T03:18:41;7.70;99.90
11043;DHT22;5574;48.786;10.120;2022-11-15T03:21:11;7.60;99.90
11043;DHT22;5574;48.786;10.120;2022-11-15T03:23:41;7.60;99.90
11043;DHT22;5574;48.786;10.120;2022-11-15T03:26:12;7.60;99.90
11043;DHT22;5574;48.786;10.120;2022-11-15T03:28:43;7.50;99.90
11043;DHT22;5574;48.786;10.120;2022-11-15T03:31:13;7.50;99.90
11043;DHT22;5574;48.786;10.120;2022-11-15T03:34:01;7.50;99.90
11043;DHT22;5574;48.786;10.120;2022-11-15T03:36:31;7.40;99.90
11043;DHT22;5574;48.786;10.120;2022-11-15T03:39:02;7.40;99.90
11043;DHT22;5574;48.786;10.120;2022-11-15T03:41:35;7.40;99.90
11043;DHT22;5574;48.786;10.120;2022-11-15T03:44:11;7.40;99.90
11043;DHT22;5574;48.786;10.120;2022-11-15T03:46:45;7.30;99.90
11043;DHT22;5574;48.786;10.120;2022-11-15T03:49:18;7.30;99.90
11043;DHT22;5574;48.786;10.120;2022-11-15T03:51:46;7.30;99.90
11043;DHT22;5574;48.786;10.120;2022-11-15T03:54:13;7.30;99.90
11043;DHT22;5574;48.786;10.120;2022-11-15T03:56:40;7.30;99.90
11043;DHT22;5574;48.786;10.120;2022-11-15T03:59:07;7.20;99.90
11043;DHT22;5574;48.786;10.120;2022-11-15T04:01:34;7.20;99.90
11043;DHT22;5574;48.786;10.120;2022-11-15T04:04:00;7.10;99.90
11043;DHT22;5574;48.786;10.120;2022-11-15T04:06:28;7.10;99.90
11043;DHT22;5574;48.786;10.120;2022-11-15T04:08:55;7.10;99.90
11043;DHT22;5574;48.786;10.120;2022-11-15T04:11:22;7.10;99.90
11043;DHT22;5574;48.786;10.120;2022-11-15T04:13:48;7.00;99.90
11043;DHT22;5574;48.786;10.120;2022-11-15T04:16:15;7.10;99.90
11043;DHT22;5574;48.786;10.120;2022-11-15T04:18:42;7.00;99.90
11043;DHT22;5574;48.786;10.120;2022-11-15T04:21:09;7.00;99.90
11043;DHT22;5574;48.786;10.120;2022-11-15T04:23:54;7.00;99.90
11043;DHT22;5574;48.786;10.120;2022-11-15T04:26:39;7.00;99.90
11043;DHT22;5574;48.786;10.120;2022-11-15T04:29:05;6.90;99.90
11043;DHT22;5574;48.786;10.120;2022-11-15T04:31:50;6.90;99.90
11043;DHT22;5574;48.786;10.120;2022-11-15T04:34:16;6.80;99.90
11043;DHT22;5574;48.786;10.120;2022-11-15T04:36:43;6.80;99.90
11043;DHT22;5574;48.786;10.120;2022-11-15T04:39:34;6.80;99.90
11043;DHT22;5574;48.786;10.120;2022-11-15T04:42:00;6.80;99.90
11043;DHT22;5574;48.786;10.120;2022-11-15T04:44:27;6.80;99.90
11043;DHT22;5574;48.786;10.120;2022-11-15T04:46:54;6.80;99.90
11043;DHT22;5574;48.786;10.120;2022-11-15T04:49:21;6.80;99.90
11043;DHT22;5574;48.786;10.120;2022-11-15T04:51:47;6.80;99.90
11043;DHT22;5574;48.786;10.120;2022-11-15T04:54:14;6.80;99.90
11043;DHT22;5574;48.786;10.120;2022-11-15T04:56:42;6.80;99.90
11043;DHT22;5574;48.786;10.120;2022-11-15T04:59:09;6.70;99.90
11043;DHT22;5574;48.786;10.120;2022-11-15T05:01:36;6.70;99.90
11043;DHT22;5574;48.786;10.120;2022-11-15T05:04:03;6.70;99.90
11043;DHT22;5574;48.786;10.120;2022-11-15T05:06:44;6.70;99.90
11043;DHT22;5574;48.786;10.120;2022-11-15T05:09:11;6.70;99.90
11043;DHT22;5574;48.786;10.120;2022-11-15T05:11:38;6.80;99.90
11043;DHT22;5574;48.786;10.120;2022-11-15T05:14:06;6.80;99.90
11043;DHT22;5574;48.786;10.120;2022-11-15T05:16:33;6.80;99.90
11043;DHT22;5574;48.786;10.120;2022-11-15T05:19:00;6.80;99.90
11043;DHT22;5574;48.786;10.120;2022-11-15T05:21:26;6.80;99.90
11043;DHT22;5574;48.786;10.120;2022-11-15T05:23:53;6.80;99.90
11043;DHT22;5574;48.786;10.120;2022-11-15T05:26:20;6.80;99.90
11043;DHT22;5574;48.786;10.120;2022-11-15T05:28:46;6.80;99.90
11043;DHT22;5574;48.786;10.120;2022-11-15T05:31:19;6.80;99.90
11043;DHT22;5574;48.786;10.120;2022-11-15T05:33:46;6.80;99.90
11043;DHT22;5574;48.786;10.120;2022-11-15T05:36:17;6.80;99.90
11043;DHT22;5574;48.786;10.120;2022-11-15T05:38:45;6.90;99.90
11043;DHT22;5574;48.786;10.120;2022-11-15T05:41:13;6.90;99.90
11043;DHT22;5574;48.786;10.120;2022-11-15T05:43:42;6.90;99.90
11043;DHT22;5574;48.786;10.120;2022-11-15T05:46:10;6.90;99.90
11043;DHT22;5574;48.786;10.120;2022-11-15T05:48:41;6.90;99.90
11043;DHT22;5574;48.786;10.120;2022-11-15T05:51:08;6.90;99.90
11043;DHT22;5574;48.786;10.120;2022-11-15T05:53:36;7.00;99.90
11043;DHT22;5574;48.786;10.120;2022-11-15T05:56:04;7.00;99.90
11043;DHT22;5574;48.786;10.120;2022-11-15T05:58:32;6.90;99.90
11043;DHT22;5574;48.786;10.120;2022-11-15T06:00:59;6.90;99.90
11043;DHT22;5574;48.786;10.120;2022-11-15T06:03:26;6.80;99.90
11043;DHT22;5574;48.786;10.120;2022-11-15T06:05:54;6.90;99.90
11043;DHT22;5574;48.786;10.120;2022-11-15T06:08:21;6.90;99.90
11043;DHT22;5574;48.786;10.120;2022-11-15T06:10:47;6.90;99.90
11043;DHT22;5574;48.786;10.120;2022-11-15T06:13:14;6.90;99.90
11043;DHT22;5574;48.786;10.120;2022-11-15T06:15:41;6.90;99.90
11043;DHT22;5574;48.786;10.120;2022-11-15T06:18:08;6.90;99.90
11043;DHT22;5574;48.786;10.120;2022-11-15T06:20:34;6.90;99.90
11043;DHT22;5574;48.786;10.120;2022-11-15T06:23:03;6.90;99.90
11043;DHT22;5574;48.786;10.120;2022-11-15T06:25:31;6.80;99.90
11043;DHT22;5574;48.786;10.120;2022-11-15T06:27:58;6.80;99.90
11043;DHT22;5574;48.786;10.120;2022-11-15T06:30:26;6.80;99.90
11043;DHT22;5574;48.786;10.120;2022-11-15T06:32:59;6.90;99.90
11043;DHT22;5574;48.786;10.120;2022-11-15T06:35:26;6.90;99.90
11043;DHT22;5574;48.786;10.120;2022-11-15T06:37:53;6.90;99.90
11043;DHT22;5574;48.786;10.120;2022-11-15T06:40:21;6.90;99.90
11043;DHT22;5574;48.786;10.120;2022-11-15T06:42:48;6.90;99.90
11043;DHT22;5574;48.786;10.120;2022-11-15T06:45:15;7.00;99.90
11043;DHT22;5574;48.786;10.120;2022-11-15T06:47:44;7.00;99.90
11043;DHT22;5574;48.786;10.120;2022-11-15T06:50:12;7.00;99.90
11043;DHT22;5574;48.786;10.120;2022-11-15T06:52:38;7.00;99.90
11043;DHT22;5574;48.786;10.120;2022-11-15T06:55:06;7.00;99.90
11043;DHT22;5574;48.786;10.120;2022-11-15T06:57:35;7.00;99.90
11043;DHT22;5574;48.786;10.120;2022-11-15T07:00:03;7.00;99.90
11043;DHT22;5574;48.786;10.120;2022-11-15T07:02:31;7.00;99.90
11043;DHT22;5574;48.786;10.120;2022-11-15T07:04:57;7.00;99.90
11043;DHT22;5574;48.786;10.120;2022-11-15T07:07:24;7.00;99.90
11043;DHT22;5574;48.786;10.120;2022-11-15T07:09:51;6.90;99.90
11043;DHT22;5574;48.786;10.120;2022-11-15T07:12:17;6.90;99.90
11043;DHT22;5574;48.786;10.120;2022-11-15T07:14:46;6.90;99.90
11043;DHT22;5574;48.786;10.120;2022-11-15T07:17:12;6.90;99.90
11043;DHT22;5574;48.786;10.120;2022-11-15T07:19:39;6.90;99.90
11043;DHT22;5574;48.786;10.120;2022-11-15T07:22:06;6.90;99.90
11043;DHT22;5574;48.786;10.120;2022-11-15T07:24:32;7.10;99.90
11043;DHT22;5574;48.786;10.120;2022-11-15T07:26:59;7.20;99.90
11043;DHT22;5574;48.786;10.120;2022-11-15T07:29:26;7.30;99.90
11043;DHT22;5574;48.786;10.120;2022-11-15T07:31:54;7.50;99.90
11043;DHT22;5574;48.786;10.120;2022-11-15T07:34:21;7.60;99.90
11043;DHT22;5574;48.786;10.120;2022-11-15T07:36:49;7.90;99.90
11043;DHT22;5574;48.786;10.120;2022-11-15T07:39:16;8.40;99.90
11043;DHT22;5574;48.786;10.120;2022-11-15T07:41:42;8.60;99.90
11043;DHT22;5574;48.786;10.120;2022-11-15T07:44:10;9.40;99.90
11043;DHT22;5574;48.786;10.120;2022-11-15T07:46:36;9.90;99.90
11043;DHT22;5574;48.786;10.120;2022-11-15T07:49:05;10.00;99.90
11043;DHT22;5574;48.786;10.120;2022-11-15T07:51:31;10.90;99.90
11043;DHT22;5574;48.786;10.120;2022-11-15T07:53:58;11.20;99.90
11043;DHT22;5574;48.786;10.120;2022-11-15T07:56:25;11.20;99.90
11043;DHT22;5574;48.786;10.120;2022-11-15T07:58:51;11.40;99.90
11043;DHT22;5574;48.786;10.120;2022-11-15T08:01:18;11.10;99.90
11043;DHT22;5574;48.786;10.120;2022-11-15T08:03:45;10.80;99.90
11043;DHT22;5574;48.786;10.120;2022-11-15T08:06:13;10.50;99.90
11043;DHT22;5574;48.786;10.120;2022-11-15T08:08:40;10.20;99.90
11043;DHT22;5574;48.786;10.120;2022-11-15T08:11:07;10.00;99.90
11043;DHT22;5574;48.786;10.120;2022-11-15T08:13:33;10.00;99.90
11043;DHT22;5574;48.786;10.120;2022-11-15T08:16:01;9.80;99.90
11043;DHT22;5574;48.786;10.120;2022-11-15T08:18:30;9.80;99.90
11043;DHT22;5574;48.786;10.120;2022-11-15T08:20:59;9.70;99.90
11043;DHT22;5574;48.786;10.120;2022-11-15T08:23:27;9.70;99.90
11043;DHT22;5574;48.786;10.120;2022-11-15T08:25:59;9.60;99.90
11043;DHT22;5574;48.786;10.120;2022-11-15T08:28:26;9.60;99.90
11043;DHT22;5574;48.786;10.120;2022-11-15T08:30:53;9.70;99.90
11043;DHT22;5574;48.786;10.120;2022-11-15T08:33:20;9.70;99.90
11043;DHT22;5574;48.786;10.120;2022-11-15T08:35:46;9.70;99.90
11043;DHT22;5574;48.786;10.120;2022-11-15T08:38:13;9.70;99.90
11043;DHT22;5574;48.786;10.120;2022-11-15T08:40:42;9.80;99.90
11043;DHT22;5574;48.786;10.120;2022-11-15T08:43:08;9.90;99.90
11043;DHT22;5574;48.786;10.120;2022-11-15T08:45:35;10.00;99.90
11043;DHT22;5574;48.786;10.120;2022-11-15T08:48:02;10.10;99.90
11043;DHT22;5574;48.786;10.120;2022-11-15T08:50:30;10.20;99.90
11043;DHT22;5574;48.786;10.120;2022-11-15T08:52:57;10.30;99.90
11043;DHT22;5574;48.786;10.120;2022-11-15T08:55:24;10.40;99.90
11043;DHT22;5574;48.786;10.120;2022-11-15T08:57:52;10.40;99.90
11043;DHT22;5574;48.786;10.120;2022-11-15T09:00:19;10.60;99.90
11043;DHT22;5574;48.786;10.120;2022-11-15T09:02:46;10.60;99.90
11043;DHT22;5574;48.786;10.120;2022-11-15T09:05:13;10.60;99.90
11043;DHT22;5574;48.786;10.120;2022-11-15T09:07:40;10.80;99.90
11043;DHT22;5574;48.786;10.120;2022-11-15T09:10:08;11.00;99.90
11043;DHT22;5574;48.786;10.120;2022-11-15T09:12:35;11.20;99.90
11043;DHT22;5574;48.786;10.120;2022-11-15T09:15:04;11.20;99.90
11043;DHT22;5574;48.786;10.120;2022-11-15T09:17:31;11.30;99.90
11043;DHT22;5574;48.786;10.120;2022-11-15T09:19:58;11.30;99.90
11043;DHT22;5574;48.786;10.120;2022-11-15T09:22:24;11.40;99.90
11043;DHT22;5574;48.786;10.120;2022-11-15T09:24:51;11.50;99.90
11043;DHT22;5574;48.786;10.120;2022-11-15T09:27:18;11.60;99.90
11043;DHT22;5574;48.786;10.120;2022-11-15T09:29:45;11.70;99.90
11043;DHT22;5574;48.786;10.120;2022-11-15T09:32:13;11.80;99.90
11043;DHT22;5574;48.786;10.120;2022-11-15T09:34:39;12.00;99.90
11043;DHT22;5574;48.786;10.120;2022-11-15T09:37:06;12.20;99.90
11043;DHT22;5574;48.786;10.120;2022-11-15T09:39:33;12.30;99.90
11043;DHT22;5574;48.786;10.120;2022-11-15T09:42:23;12.30;99.90
11043;DHT22;5574;48.786;10.120;2022-11-15T09:45:04;12.30;99.90
11043;DHT22;5574;48.786;10.120;2022-11-15T09:47:57;12.40;99.90
11043;DHT22;5574;48.786;10.120;2022-11-15T09:50:34;12.50;99.90
11043;DHT22;5574;48.786;10.120;2022-11-15T09:53:03;12.50;99.90
11043;DHT22;5574;48.786;10.120;2022-11-15T09:55:36;12.60;99.90
11043;DHT22;5574;48.786;10.120;2022-11-15T09:58:15;12.70;99.90
11043;DHT22;5574;48.786;10.120;2022-11-15T10:00:46;13.10;99.90
11043;DHT22;5574;48.786;10.120;2022-11-15T10:03:25;13.40;99.90
11043;DHT22;5574;48.786;10.120;2022-11-15T10:05:55;13.50;99.90
11043;DHT22;5574;48.786;10.120;2022-11-15T10:08:46;13.70;99.90
11043;DHT22;5574;48.786;10.120;2022-11-15T10:11:19;13.70;99.90
11043;DHT22;5574;48.786;10.120;2022-11-15T10:13:49;13.80;99.90
11043;DHT22;5574;48.786;10.120;2022-11-15T10:17:01;13.70;99.90
11043;DHT22;5574;48.786;10.120;2022-11-15T10:19:36;13.70;99.90
11043;DHT22;5574;48.786;10.120;2022-11-15T10:22:16;13.70;99.90
11043;DHT22;5574;48.786;10.120;2022-11-15T10:24:45;13.90;99.90
11043;DHT22;5574;48.786;10.120;2022-11-15T10:27:15;14.10;99.90
11043;DHT22;5574;48.786;10.120;2022-11-15T10:29:43;14.40;99.90
11043;DHT22;5574;48.786;10.120;2022-11-15T10:32:11;14.60;99.90
11043;DHT22;5574;48.786;10.120;2022-11-15T10:34:39;14.60;99.90
11043;DHT22;5574;48.786;10.120;2022-11-15T10:37:06;14.50;99.90
11043;DHT22;5574;48.786;10.120;2022-11-15T10:39:33;14.40;99.90
11043;DHT22;5574;48.786;10.120;2022-11-15T10:42:15;14.30;99.90
11043;DHT22;5574;48.786;10.120;2022-11-15T10:44:44;14.20;99.90
11043;DHT22;5574;48.786;10.120;2022-11-15T10:47:34;14.10;99.90
11043;DHT22;5574;48.786;10.120;2022-11-15T10:50:05;13.90;99.90
11043;DHT22;5574;48.786;10.120;2022-11-15T10:52:34;13.80;99.90
11043;DHT22;5574;48.786;10.120;2022-11-15T10:55:12;13.70;99.90
11043;DHT22;5574;48.786;10.120;2022-11-15T10:57:49;13.60;99.90
11043;DHT22;5574;48.786;10.120;2022-11-15T11:00:29;13.50;99.90
11043;DHT22;5574;48.786;10.120;2022-11-15T11:02:58;13.40;99.90
11043;DHT22;5574;48.786;10.120;2022-11-15T11:05:29;13.40;99.90
11043;DHT22;5574;48.786;10.120;2022-11-15T11:07:59;13.40;99.90
11043;DHT22;5574;48.786;10.120;2022-11-15T11:10:27;13.40;99.90
11043;DHT22;5574;48.786;10.120;2022-11-15T11:12:54;13.30;99.90
11043;DHT22;5574;48.786;10.120;2022-11-15T11:15:23;13.30;99.90
11043;DHT22;5574;48.786;10.120;2022-11-15T11:17:58;13.30;99.90
11043;DHT22;5574;48.786;10.120;2022-11-15T11:20:31;13.30;99.90
11043;DHT22;5574;48.786;10.120;2022-11-15T11:23:10;13.30;99.90
11043;DHT22;5574;48.786;10.120;2022-11-15T11:25:51;13.30;99.90
11043;DHT22;5574;48.786;10.120;2022-11-15T11:28:30;13.30;99.90
11043;DHT22;5574;48.786;10.120;2022-11-15T11:31:09;13.30;99.90
11043;DHT22;5574;48.786;10.120;2022-11-15T11:33:44;13.30;99.90
11043;DHT22;5574;48.786;10.120;2022-11-15T11:36:21;13.40;99.90
11043;DHT22;5574;48.786;10.120;2022-11-15T11:38:56;13.40;99.90
11043;DHT22;5574;48.786;10.120;2022-11-15T11:41:42;13.50;99.90
11043;DHT22;5574;48.786;10.120;2022-11-15T11:44:20;13.50;99.90
11043;DHT22;5574;48.786;10.120;2022-11-15T11:46:55;13.70;99.90
11043;DHT22;5574;48.786;10.120;2022-11-15T11:49:28;13.80;99.90
11043;DHT22;5574;48.786;10.120;2022-11-15T11:52:02;13.70;99.90
11043;DHT22;5574;48.786;10.120;2022-11-15T11:54:38;13.70;99.90
11043;DHT22;5574;48.786;10.120;2022-11-15T11:57:14;13.70;99.90
11043;DHT22;5574;48.786;10.120;2022-11-15T11:59:48;13.70;99.90
11043;DHT22;5574;48.786;10.120;2022-11-15T12:02:20;13.70;99.90
11043;DHT22;5574;48.786;10.120;2022-11-15T12:04:50;13.70;99.90
11043;DHT22;5574;48.786;10.120;2022-11-15T12:07:24;13.70;99.90
11043;DHT22;5574;48.786;10.120;2022-11-15T12:09:57;13.70;99.90
11043;DHT22;5574;48.786;10.120;2022-11-15T12:12:30;13.70;99.90
11043;DHT22;5574;48.786;10.120;2022-11-15T12:15:02;13.80;99.90
11043;DHT22;5574;48.786;10.120;2022-11-15T12:17:31;13.80;99.90
11043;DHT22;5574;48.786;10.120;2022-11-15T12:19:59;13.80;99.90
11043;DHT22;5574;48.786;10.120;2022-11-15T12:22:36;13.80;99.90
11043;DHT22;5574;48.786;10.120;2022-11-15T12:25:06;13.90;99.90
11043;DHT22;5574;48.786;10.120;2022-11-15T12:27:36;13.90;99.90
11043;DHT22;5574;48.786;10.120;2022-11-15T12:30:11;13.80;99.90
11043;DHT22;5574;48.786;10.120;2022-11-15T12:32:39;13.80;99.90
11043;DHT22;5574;48.786;10.120;2022-11-15T12:35:22;13.80;99.90
11043;DHT22;5574;48.786;10.120;2022-11-15T12:37:52;13.70;99.90
11043;DHT22;5574;48.786;10.120;2022-11-15T12:40:30;13.60;99.90
11043;DHT22;5574;48.786;10.120;2022-11-15T12:46:02;13.50;99.90
11043;DHT22;5574;48.786;10.120;2022-11-15T12:48:52;13.60;99.90
11043;DHT22;5574;48.786;10.120;2022-11-15T12:51:21;13.60;99.90
11043;DHT22;5574;48.786;10.120;2022-11-15T12:53:50;13.60;99.90
11043;DHT22;5574;48.786;10.120;2022-11-15T12:56:21;13.70;99.90
11043;DHT22;5574;48.786;10.120;2022-11-15T12:58:54;13.80;99.90
11043;DHT22;5574;48.786;10.120;2022-11-15T13:01:52;13.80;99.90
11043;DHT22;5574;48.786;10.120;2022-11-15T13:04:28;13.80;99.90
11043;DHT22;5574;48.786;10.120;2022-11-15T13:06:57;13.80;99.90
11043;DHT22;5574;48.786;10.120;2022-11-15T13:12:56;13.60;99.90
11043;DHT22;5574;48.786;10.120;2022-11-15T13:15:58;13.50;99.90
11043;DHT22;5574;48.786;10.120;2022-11-15T13:18:43;13.40;99.90
11043;DHT22;5574;48.786;10.120;2022-11-15T13:21:21;13.40;99.90
11043;DHT22;5574;48.786;10.120;2022-11-15T13:24:12;13.30;99.90
11043;DHT22;5574;48.786;10.120;2022-11-15T13:26:40;13.30;99.90
11043;DHT22;5574;48.786;10.120;2022-11-15T13:29:16;13.30;99.90
11043;DHT22;5574;48.786;10.120;2022-11-15T13:31:45;13.20;99.90
11043;DHT22;5574;48.786;10.120;2022-11-15T13:34:27;13.20;99.90
11043;DHT22;5574;48.786;10.120;2022-11-15T13:36:54;13.20;99.90
11043;DHT22;5574;48.786;10.120;2022-11-15T13:39:28;13.10;99.90
11043;DHT22;5574;48.786;10.120;2022-11-15T13:41:55;13.10;99.90
11043;DHT22;5574;48.786;10.120;2022-11-15T13:44:25;13.00;99.90
11043;DHT22;5574;48.786;10.120;2022-11-15T13:47:01;13.00;99.90
11043;DHT22;5574;48.786;10.120;2022-11-15T13:49:33;13.00;99.90
11043;DHT22;5574;48.786;10.120;2022-11-15T13:52:01;13.00;99.90
11043;DHT22;5574;48.786;10.120;2022-11-15T13:54:30;13.00;99.90
11043;DHT22;5574;48.786;10.120;2022-11-15T13:57:02;12.90;99.90
11043;DHT22;5574;48.786;10.120;2022-11-15T13:59:33;13.00;99.90
11043;DHT22;5574;48.786;10.120;2022-11-15T14:02:11;13.00;99.90
11043;DHT22;5574;48.786;10.120;2022-11-15T14:04:45;13.00;99.90
11043;DHT22;5574;48.786;10.120;2022-11-15T14:07:16;13.00;99.90
11043;DHT22;5574;48.786;10.120;2022-11-15T14:09:44;13.00;99.90
11043;DHT22;5574;48.786;10.120;2022-11-15T14:12:27;13.00;99.90
11043;DHT22;5574;48.786;10.120;2022-11-15T14:14:57;13.00;99.90
11043;DHT22;5574;48.786;10.120;2022-11-15T14:17:36;12.90;99.90
11043;DHT22;5574;48.786;10.120;2022-11-15T14:20:20;12.80;99.90
11043;DHT22;5574;48.786;10.120;2022-11-15T14:22:54;12.80;99.90
11043;DHT22;5574;48.786;10.120;2022-11-15T14:25:22;12.80;99.90
11043;DHT22;5574;48.786;10.120;2022-11-15T14:28:10;12.70;99.90
11043;DHT22;5574;48.786;10.120;2022-11-15T14:30:40;12.70;99.90
11043;DHT22;5574;48.786;10.120;2022-11-15T14:33:20;12.80;99.90
11043;DHT22;5574;48.786;10.120;2022-11-15T14:35:47;12.80;99.90
11043;DHT22;5574;48.786;10.120;2022-11-15T14:38:14;12.70;99.90
11043;DHT22;5574;48.786;10.120;2022-11-15T14:40:42;12.70;99.90
11043;DHT22;5574;48.786;10.120;2022-11-15T14:43:09;12.60;99.90
11043;DHT22;5574;48.786;10.120;2022-11-15T14:45:38;12.60;99.90
11043;DHT22;5574;48.786;10.120;2022-11-15T14:48:05;12.60;99.90
11043;DHT22;5574;48.786;10.120;2022-11-15T14:50:33;12.50;99.90
11043;DHT22;5574;48.786;10.120;2022-11-15T14:53:00;12.50;99.90
11043;DHT22;5574;48.786;10.120;2022-11-15T14:55:28;12.50;99.90
11043;DHT22;5574;48.786;10.120;2022-11-15T14:57:57;12.40;99.90
11043;DHT22;5574;48.786;10.120;2022-11-15T15:00:24;12.50;99.90
11043;DHT22;5574;48.786;10.120;2022-11-15T15:02:54;12.50;99.90
11043;DHT22;5574;48.786;10.120;2022-11-15T15:05:24;12.40;99.90
11043;DHT22;5574;48.786;10.120;2022-11-15T15:07:51;12.40;99.90
11043;DHT22;5574;48.786;10.120;2022-11-15T15:10:19;12.40;99.90
11043;DHT22;5574;48.786;10.120;2022-11-15T15:12:46;12.40;99.90
11043;DHT22;5574;48.786;10.120;2022-11-15T15:15:14;12.40;99.90
11043;DHT22;5574;48.786;10.120;2022-11-15T15:17:41;12.30;99.90
11043;DHT22;5574;48.786;10.120;2022-11-15T15:20:10;12.30;99.90
11043;DHT22;5574;48.786;10.120;2022-11-15T15:22:37;12.20;99.90
11043;DHT22;5574;48.786;10.120;2022-11-15T15:25:20;12.20;99.90
11043;DHT22;5574;48.786;10.120;2022-11-15T15:27:47;12.20;99.90
11043;DHT22;5574;48.786;10.120;2022-11-15T15:30:13;12.20;99.90
11043;DHT22;5574;48.786;10.120;2022-11-15T15:32:40;12.10;99.90
11043;DHT22;5574;48.786;10.120;2022-11-15T15:35:11;12.10;99.90
11043;DHT22;5574;48.786;10.120;2022-11-15T15:37:39;12.10;99.90
11043;DHT22;5574;48.786;10.120;2022-11-15T15:40:11;12.00;99.90
11043;DHT22;5574;48.786;10.120;2022-11-15T15:42:39;11.90;99.90
11043;DHT22;5574;48.786;10.120;2022-11-15T15:45:07;11.90;99.90
11043;DHT22;5574;48.786;10.120;2022-11-15T15:47:34;11.90;99.90
11043;DHT22;5574;48.786;10.120;2022-11-15T15:50:01;11.90;99.90
11043;DHT22;5574;48.786;10.120;2022-11-15T15:52:29;11.90;99.90
11043;DHT22;5574;48.786;10.120;2022-11-15T15:54:56;11.90;99.90
11043;DHT22;5574;48.786;10.120;2022-11-15T15:57:22;12.00;99.90
11043;DHT22;5574;48.786;10.120;2022-11-15T15:59:49;11.90;99.90
11043;DHT22;5574;48.786;10.120;2022-11-15T16:02:16;12.00;99.90
11043;DHT22;5574;48.786;10.120;2022-11-15T16:04:43;11.90;99.90
11043;DHT22;5574;48.786;10.120;2022-11-15T16:07:16;11.90;99.90
11043;DHT22;5574;48.786;10.120;2022-11-15T16:09:45;11.80;99.90